Terminal Aerodrome Forecast
Issued by NWS

Home | Current Version | Previous Version | Graphics & Text | Print | Product List | Glossary On
Versions: 1 2 3 4 5 6 7 8 9 10 11 12 13 14 15 16
607
FTUS41 KCLE 250532
TAFFDY
TAF
KFDY 250532Z 2506/2606 18008KT P6SM BKN250
     FM251100 23008KT P6SM VCSH BKN050 OVC120
     FM251600 26010KT P6SM SCT035 BKN100
     FM260000 28004KT P6SM SKC=

USA.gov is the U.S. government's official web portal to all federal, state and local government web resources and services.